createdAt,value
2019-05-23T00:01:05.795Z,11.79
2019-05-23T00:04:04.057Z,11.28
2019-05-23T00:06:54.021Z,11.74
2019-05-23T00:09:43.441Z,11.74
2019-05-23T00:12:33.048Z,11.55
2019-05-23T00:15:23.195Z,11.62
2019-05-23T00:17:54.744Z,11.45
2019-05-23T00:20:25.834Z,11.51
2019-05-23T00:22:57.463Z,11.37
2019-05-23T00:25:30.480Z,11.53
2019-05-23T00:28:04.875Z,11.51
2019-05-23T00:30:44.991Z,11.59
2019-05-23T00:33:21.214Z,11.34
2019-05-23T00:35:52.621Z,11.33
2019-05-23T00:38:24.912Z,11.50
2019-05-23T00:40:56.492Z,11.54
2019-05-23T00:43:27.919Z,11.70
2019-05-23T00:45:59.944Z,11.70
2019-05-23T00:48:32.013Z,11.52
2019-05-23T00:51:05.325Z,10.91
2019-05-23T00:53:36.792Z,11.12
2019-05-23T00:56:09.689Z,11.20
2019-05-23T00:58:41.075Z,10.96
2019-05-23T01:01:13.450Z,11.60
2019-05-23T01:03:45.514Z,11.27
2019-05-23T01:06:17.915Z,11.27
2019-05-23T01:08:50.098Z,10.90
2019-05-23T01:11:21.574Z,11.31
2019-05-23T01:13:52.658Z,11.26
2019-05-23T01:16:24.147Z,11.27
2019-05-23T01:18:55.737Z,11.31
2019-05-23T01:21:55.086Z,10.87
2019-05-23T01:24:30.387Z,10.60
2019-05-23T01:27:02.343Z,10.70
2019-05-23T01:29:39.686Z,11.12
2019-05-23T01:32:25.749Z,11.04
2019-05-23T01:34:58.758Z,11.06
2019-05-23T01:37:30.726Z,10.72
2019-05-23T01:40:02.070Z,10.53
2019-05-23T01:42:35.091Z,10.53
2019-05-23T01:45:08.717Z,10.32
2019-05-23T01:47:40.568Z,10.40
2019-05-23T01:50:14.063Z,10.73
2019-05-23T01:52:45.504Z,10.73
2019-05-23T01:55:17.160Z,10.60
2019-05-23T01:57:49.102Z,10.43
2019-05-23T02:00:21.179Z,10.68
2019-05-23T02:02:54.832Z,10.46
2019-05-23T02:05:26.061Z,10.41
2019-05-23T02:07:58.297Z,10.09
2019-05-23T02:10:29.356Z,10.09
2019-05-23T02:13:00.912Z,10.22
2019-05-23T02:15:33.327Z,10.70
2019-05-23T02:18:04.596Z,10.46
2019-05-23T02:20:37.941Z,10.59
2019-05-23T02:23:09.577Z,10.49
2019-05-23T02:25:42.831Z,10.66
2019-05-23T02:28:15.267Z,10.68
2019-05-23T02:30:47.842Z,10.53
2019-05-23T02:33:19.614Z,10.46
2019-05-23T02:35:51.710Z,10.31
2019-05-23T02:38:31.325Z,10.55
2019-05-23T02:41:20.049Z,10.63
2019-05-23T02:43:54.823Z,10.47
2019-05-23T02:46:31.579Z,10.46
2019-05-23T02:49:07.259Z,10.12
2019-05-23T02:51:39.254Z,9.96
2019-05-23T02:54:13.965Z,10.25
2019-05-23T02:56:45.954Z,10.48
2019-05-23T02:59:35.371Z,10.32
2019-05-23T03:03:02.365Z,10.16
2019-05-23T03:05:37.566Z,10.23
2019-05-23T03:08:10.086Z,10.07
2019-05-23T03:10:54.537Z,9.93
2019-05-23T03:13:28.491Z,10.03
2019-05-23T03:16:00.980Z,10.04
2019-05-23T03:18:35.773Z,10.14
2019-05-23T03:21:09.204Z,10.19
2019-05-23T03:23:40.576Z,9.94
2019-05-23T03:26:44.115Z,9.98
2019-05-23T03:29:16.132Z,9.82
2019-05-23T03:32:04.962Z,9.98
2019-05-23T03:34:36.739Z,10.19
2019-05-23T03:37:07.892Z,10.09
2019-05-23T03:39:39.766Z,10.02
2019-05-23T03:42:12.685Z,9.65
2019-05-23T03:44:45.072Z,9.72
2019-05-23T03:47:18.414Z,9.51
2019-05-23T03:49:50.234Z,9.51
2019-05-23T03:52:23.663Z,9.55
2019-05-23T03:54:56.609Z,10.06
2019-05-23T03:57:29.232Z,9.63
2019-05-23T04:00:01.883Z,9.70
2019-05-23T04:02:33.102Z,9.83
2019-05-23T04:05:04.618Z,9.92
2019-05-23T04:07:36.449Z,10.03
2019-05-23T04:10:09.308Z,9.65
2019-05-23T04:12:40.597Z,9.72
2019-05-23T04:15:12.789Z,9.72
2019-05-23T04:17:44.303Z,9.64
2019-05-23T04:20:15.643Z,9.83
2019-05-23T04:22:46.604Z,9.71
2019-05-23T04:25:17.683Z,9.74
2019-05-23T04:27:49.119Z,9.86
2019-05-23T04:30:20.162Z,9.96
2019-05-23T04:32:51.134Z,10.05
2019-05-23T04:35:22.857Z,10.28
2019-05-23T04:37:54.276Z,10.06
2019-05-23T04:40:25.732Z,9.83
2019-05-23T04:42:57.021Z,9.81
2019-05-23T04:45:28.816Z,10.37
2019-05-23T04:48:00.266Z,10.15
2019-05-23T04:50:32.355Z,9.79
2019-05-23T04:53:04.305Z,9.88
2019-05-23T04:55:38.139Z,9.87
2019-05-23T04:58:09.805Z,9.86
2019-05-23T05:00:42.181Z,10.08
2019-05-23T05:03:18.385Z,10.36
2019-05-23T05:05:49.564Z,10.42
2019-05-23T05:08:23.177Z,10.48
2019-05-23T05:10:55.131Z,10.40
2019-05-23T05:13:26.836Z,10.47
2019-05-23T05:15:58.214Z,10.98
2019-05-23T05:18:30.006Z,10.88
2019-05-23T05:21:01.454Z,10.87
2019-05-23T05:23:32.796Z,11.07
2019-05-23T05:26:04.611Z,11.26
2019-05-23T05:28:36.184Z,11.63
2019-05-23T05:31:07.574Z,11.58
2019-05-23T05:33:39.561Z,11.51
2019-05-23T05:36:11.500Z,11.63
2019-05-23T05:38:42.653Z,11.80
2019-05-23T05:41:14.606Z,11.97
2019-05-23T05:43:46.209Z,12.05
2019-05-23T05:46:17.459Z,12.25
2019-05-23T05:48:48.499Z,12.48
2019-05-23T05:51:19.723Z,12.57
2019-05-23T05:53:51.243Z,12.63
2019-05-23T05:56:22.355Z,12.74
2019-05-23T05:58:53.487Z,12.63
2019-05-23T06:01:33.790Z,12.77
2019-05-23T06:03:57.942Z,12.73
2019-05-23T06:06:40.032Z,12.71
2019-05-23T06:09:21.383Z,13.14
2019-05-23T06:11:52.785Z,13.21
2019-05-23T06:14:24.351Z,13.32
2019-05-23T06:16:56.921Z,13.47
2019-05-23T06:19:28.241Z,13.31
2019-05-23T06:21:59.540Z,13.49
2019-05-23T06:24:44.883Z,13.21
2019-05-23T06:27:03.821Z,13.39
2019-05-23T06:29:34.855Z,13.89
2019-05-23T06:32:08.052Z,14.30
2019-05-23T06:34:39.298Z,14.33
2019-05-23T06:37:12.711Z,14.50
2019-05-23T06:39:43.954Z,14.77
2019-05-23T06:42:15.062Z,14.49
2019-05-23T06:44:47.094Z,14.77
2019-05-23T06:47:18.477Z,14.32
2019-05-23T06:49:49.587Z,14.44
2019-05-23T06:52:20.929Z,14.59
2019-05-23T06:54:51.928Z,14.87
2019-05-23T06:57:23.552Z,15.20
2019-05-23T06:59:54.907Z,15.03
2019-05-23T07:02:31.224Z,14.92
2019-05-23T07:04:59.953Z,14.82
2019-05-23T07:07:32.565Z,15.17
2019-05-23T07:10:05.623Z,14.93
2019-05-23T07:12:37.410Z,15.39
2019-05-23T07:15:09.069Z,15.37
2019-05-23T07:17:40.603Z,15.61
2019-05-23T07:20:12.912Z,15.20
2019-05-23T07:22:44.485Z,15.52
2019-05-23T07:25:15.461Z,15.47
2019-05-23T07:27:46.538Z,15.72
2019-05-23T07:30:21.309Z,16.00
2019-05-23T07:32:53.920Z,16.30
2019-05-23T07:35:25.989Z,16.29
2019-05-23T07:37:57.338Z,16.27
2019-05-23T07:40:28.904Z,16.84
2019-05-23T07:43:00.984Z,16.99
2019-05-23T07:45:39.894Z,17.09
2019-05-23T07:48:12.178Z,16.97
2019-05-23T07:50:44.345Z,17.02
2019-05-23T07:53:20.736Z,17.30
2019-05-23T07:55:52.988Z,17.03
2019-05-23T07:58:24.320Z,17.34
2019-05-23T08:00:58.955Z,16.64
2019-05-23T08:03:31.678Z,17.67
2019-05-23T08:06:03.067Z,17.24
2019-05-23T08:08:34.448Z,17.20
2019-05-23T08:11:05.565Z,17.95
2019-05-23T08:13:37.407Z,17.87
2019-05-23T08:16:08.934Z,17.70
2019-05-23T08:18:40.036Z,18.29
2019-05-23T08:21:11.285Z,17.67
2019-05-23T08:23:42.745Z,18.16
2019-05-23T08:26:15.387Z,18.25
2019-05-23T08:29:21.735Z,18.36
2019-05-23T08:31:20.270Z,18.69
2019-05-23T08:33:51.439Z,19.59
2019-05-23T08:36:22.981Z,18.97
2019-05-23T08:38:54.369Z,18.75
2019-05-23T08:41:25.680Z,19.28
2019-05-23T08:43:56.824Z,19.49
2019-05-23T08:46:28.480Z,19.61
2019-05-23T08:49:00.707Z,19.28
2019-05-23T08:51:32.858Z,19.30
2019-05-23T08:54:04.269Z,18.86
2019-05-23T08:56:35.286Z,19.19
2019-05-23T08:59:06.507Z,19.49
2019-05-23T09:01:37.795Z,20.07
2019-05-23T09:04:10.171Z,19.74
2019-05-23T09:06:42.621Z,19.57
2019-05-23T09:09:29.016Z,19.33
2019-05-23T09:11:49.707Z,19.88
2019-05-23T09:14:21.853Z,20.12
2019-05-23T09:16:53.233Z,19.67
2019-05-23T09:19:24.886Z,20.66
2019-05-23T09:21:58.023Z,20.71
2019-05-23T09:24:28.713Z,20.26
2019-05-23T09:27:00.706Z,20.46
2019-05-23T09:29:32.656Z,20.64
2019-05-23T09:32:04.212Z,20.44
2019-05-23T09:34:35.274Z,20.81
2019-05-23T09:37:08.279Z,20.53
2019-05-23T09:39:41.339Z,20.98
2019-05-23T09:42:12.713Z,19.98
2019-05-23T09:44:44.037Z,21.09
2019-05-23T09:47:15.366Z,20.63
2019-05-23T09:49:53.664Z,20.40
2019-05-23T09:52:21.606Z,21.24
2019-05-23T09:54:52.579Z,21.01
2019-05-23T09:57:23.640Z,20.92
2019-05-23T09:59:57.010Z,21.09
2019-05-23T10:02:28.246Z,21.46
2019-05-23T10:04:59.279Z,20.86
2019-05-23T10:07:30.628Z,21.20
2019-05-23T10:10:01.632Z,21.67
2019-05-23T10:12:33.872Z,21.82
2019-05-23T10:15:05.535Z,21.20
2019-05-23T10:17:36.890Z,21.20
2019-05-23T10:20:08.347Z,21.31
2019-05-23T10:22:39.873Z,21.26
2019-05-23T10:25:11.092Z,20.99
2019-05-23T10:27:42.419Z,22.32
2019-05-23T10:30:15.225Z,22.30
2019-05-23T10:32:46.712Z,21.37
2019-05-23T10:35:18.231Z,20.93
2019-05-23T10:37:49.325Z,21.12
2019-05-23T10:40:22.132Z,21.91
2019-05-23T10:42:53.161Z,22.14
2019-05-23T10:45:24.199Z,22.10
2019-05-23T10:47:55.657Z,21.81
2019-05-23T10:50:26.742Z,22.74
2019-05-23T10:52:57.991Z,21.92
2019-05-23T10:55:29.100Z,21.41
2019-05-23T10:58:01.453Z,21.20
2019-05-23T11:00:32.905Z,22.22
2019-05-23T11:03:04.332Z,22.84
2019-05-23T11:05:36.419Z,21.34
2019-05-23T11:08:07.576Z,21.70
2019-05-23T11:10:39.131Z,22.76
2019-05-23T11:13:10.510Z,21.82
2019-05-23T11:15:42.252Z,20.83
2019-05-23T11:18:14.172Z,21.43
2019-05-23T11:20:45.687Z,22.16
2019-05-23T11:23:25.750Z,22.24
2019-05-23T11:26:00.883Z,21.88
2019-05-23T11:28:31.720Z,21.99
2019-05-23T11:31:03.156Z,22.44
2019-05-23T11:33:34.545Z,22.41
2019-05-23T11:36:06.766Z,22.33
2019-05-23T11:38:38.061Z,22.83
2019-05-23T11:41:09.660Z,22.43
2019-05-23T11:43:41.986Z,22.51
2019-05-23T11:46:30.752Z,22.92
2019-05-23T11:49:03.234Z,22.77
2019-05-23T11:51:35.881Z,21.75
2019-05-23T11:54:09.695Z,22.73
2019-05-23T11:56:42.703Z,22.28
2019-05-23T11:59:13.816Z,22.84
2019-05-23T12:02:07.517Z,23.15
2019-05-23T12:04:42.956Z,23.08
2019-05-23T12:07:18.204Z,22.53
2019-05-23T12:09:49.527Z,23.11
2019-05-23T12:12:20.777Z,23.51
2019-05-23T12:14:53.540Z,22.61
2019-05-23T12:17:26.459Z,22.29
2019-05-23T12:19:57.624Z,22.53
2019-05-23T12:22:29.488Z,22.30
2019-05-23T12:25:18.303Z,23.33
2019-05-23T12:27:33.178Z,22.79
2019-05-23T12:30:06.382Z,22.89
2019-05-23T12:32:38.719Z,22.36
2019-05-23T12:35:11.828Z,21.71
2019-05-23T12:37:42.851Z,22.59
2019-05-23T12:40:14.471Z,23.46
2019-05-23T12:42:45.884Z,23.41
2019-05-23T12:45:17.484Z,23.07
2019-05-23T12:47:56.979Z,24.01
2019-05-23T12:50:32.410Z,23.90
2019-05-23T12:53:03.533Z,22.69
2019-05-23T12:55:35.163Z,22.64
2019-05-23T12:58:06.517Z,23.27
2019-05-23T13:00:45.240Z,23.13
2019-05-23T13:03:16.601Z,23.16
2019-05-23T13:05:48.027Z,23.64
2019-05-23T13:08:19.772Z,23.17
2019-05-23T13:10:51.317Z,22.74
2019-05-23T13:13:22.648Z,23.83
2019-05-23T13:15:54.043Z,23.00
2019-05-23T13:18:25.657Z,23.45
2019-05-23T13:20:59.546Z,22.97
2019-05-23T13:23:30.098Z,23.52
2019-05-23T13:26:01.320Z,23.43
2019-05-23T13:28:32.454Z,23.84
2019-05-23T13:31:03.734Z,23.23
2019-05-23T13:33:35.095Z,23.05
2019-05-23T13:36:07.550Z,22.35
2019-05-23T13:38:38.739Z,23.33
2019-05-23T13:41:10.331Z,23.25
2019-05-23T13:43:41.549Z,23.25
2019-05-23T13:46:12.603Z,23.68
2019-05-23T13:48:43.619Z,23.85
2019-05-23T13:51:15.604Z,23.72
2019-05-23T13:53:48.380Z,23.41
2019-05-23T13:56:20.119Z,23.25
2019-05-23T13:58:53.125Z,23.45
2019-05-23T14:01:24.815Z,23.32
2019-05-23T14:03:58.380Z,22.83
2019-05-23T14:06:30.465Z,22.88
2019-05-23T14:09:01.544Z,22.91
2019-05-23T14:11:33.770Z,23.50
2019-05-23T14:14:06.273Z,24.47
2019-05-23T14:16:46.876Z,23.44
2019-05-23T14:19:18.324Z,23.05
2019-05-23T14:21:49.706Z,22.89
2019-05-23T14:24:20.757Z,22.24
2019-05-23T14:26:59.246Z,22.20
2019-05-23T14:29:30.762Z,22.19
2019-05-23T14:32:20.060Z,22.63
2019-05-23T14:34:51.124Z,22.11
2019-05-23T14:37:28.594Z,22.18
2019-05-23T14:40:09.226Z,22.16
2019-05-23T14:42:47.009Z,22.14
2019-05-23T14:45:36.381Z,22.04
2019-05-23T14:48:25.819Z,22.22
2019-05-23T14:51:04.127Z,22.01
2019-05-23T14:53:35.820Z,21.77
2019-05-23T14:56:07.461Z,22.40
2019-05-23T14:58:39.029Z,22.47
2019-05-23T15:01:11.524Z,22.89
2019-05-23T15:03:43.494Z,22.58
2019-05-23T15:06:14.645Z,22.73
2019-05-23T15:08:51.343Z,22.73
2019-05-23T15:11:19.744Z,23.04
2019-05-23T15:13:51.049Z,22.75
2019-05-23T15:16:22.532Z,22.60
2019-05-23T15:18:53.589Z,22.88
2019-05-23T15:21:24.682Z,22.77
2019-05-23T15:23:59.981Z,22.48
2019-05-23T15:26:31.214Z,22.72
2019-05-23T15:29:02.624Z,22.87
2019-05-23T15:31:33.904Z,22.64
2019-05-23T15:34:05.221Z,22.24
2019-05-23T15:36:36.489Z,22.13
2019-05-23T15:39:10.539Z,22.45
2019-05-23T15:41:44.551Z,22.19
2019-05-23T15:44:26.622Z,22.50
2019-05-23T15:46:52.930Z,22.25
2019-05-23T15:49:24.262Z,22.09
2019-05-23T15:52:14.377Z,22.39
2019-05-23T15:54:50.179Z,22.55
2019-05-23T15:57:38.902Z,22.22
2019-05-23T16:00:28.227Z,22.42
2019-05-23T16:03:13.704Z,22.02
2019-05-23T16:05:45.312Z,22.20
2019-05-23T16:08:16.836Z,22.11
2019-05-23T16:10:48.002Z,22.07
2019-05-23T16:13:18.978Z,21.92
2019-05-23T16:15:50.119Z,22.19
2019-05-23T16:18:32.865Z,22.21
2019-05-23T16:21:04.226Z,22.10
2019-05-23T16:23:35.250Z,22.06
2019-05-23T16:26:06.780Z,22.29
2019-05-23T16:28:38.126Z,21.87
2019-05-23T16:31:09.709Z,22.07
2019-05-23T16:33:40.995Z,21.95
2019-05-23T16:36:12.380Z,22.47
2019-05-23T16:38:43.887Z,22.56
2019-05-23T16:41:14.834Z,22.56
2019-05-23T16:43:46.100Z,22.68
2019-05-23T16:46:17.614Z,22.57
2019-05-23T16:48:48.630Z,21.94
2019-05-23T16:51:19.737Z,22.33
2019-05-23T16:53:51.535Z,22.16
2019-05-23T16:56:33.688Z,22.00
2019-05-23T16:59:22.724Z,21.91
2019-05-23T17:02:06.729Z,21.81
2019-05-23T17:04:45.708Z,21.73
2019-05-23T17:07:30.077Z,21.84
2019-05-23T17:10:12.346Z,21.67
2019-05-23T17:13:02.445Z,21.95
2019-05-23T17:15:54.258Z,21.84
2019-05-23T17:18:43.431Z,21.80
2019-05-23T17:21:27.852Z,22.18
2019-05-23T17:24:09.639Z,22.11
2019-05-23T17:26:55.248Z,21.96
2019-05-23T17:29:31.642Z,22.00
2019-05-23T17:32:04.600Z,22.01
2019-05-23T17:34:36.787Z,21.81
2019-05-23T17:37:10.441Z,21.64
2019-05-23T17:39:44.647Z,21.75
2019-05-23T17:42:15.987Z,21.67
2019-05-23T17:44:47.957Z,21.40
2019-05-23T17:47:19.412Z,21.42
2019-05-23T17:49:50.934Z,21.75
2019-05-23T17:52:23.530Z,21.47
2019-05-23T17:54:55.094Z,21.49
2019-05-23T17:57:26.807Z,21.56
2019-05-23T17:59:58.048Z,21.33
2019-05-23T18:02:30.512Z,21.18
2019-05-23T18:05:02.158Z,21.25
2019-05-23T18:07:35.071Z,21.09
2019-05-23T18:10:06.920Z,21.10
2019-05-23T18:12:38.228Z,21.09
2019-05-23T18:15:12.348Z,21.18
2019-05-23T18:17:45.007Z,21.29
2019-05-23T18:20:16.354Z,21.08
2019-05-23T18:22:47.757Z,20.87
2019-05-23T18:25:19.426Z,21.03
2019-05-23T18:27:51.664Z,21.03
2019-05-23T18:30:45.324Z,20.80
2019-05-23T18:33:19.552Z,20.90
2019-05-23T18:35:51.810Z,20.89
2019-05-23T18:38:23.297Z,21.04
2019-05-23T18:41:03.996Z,20.86
2019-05-23T18:43:28.677Z,20.68
2019-05-23T18:46:02.593Z,20.30
2019-05-23T18:48:35.069Z,20.38
2019-05-23T18:51:06.652Z,20.25
2019-05-23T18:53:38.173Z,20.20
2019-05-23T18:56:09.253Z,20.28
2019-05-23T18:58:40.371Z,19.95
2019-05-23T19:01:14.080Z,19.98
2019-05-23T19:03:45.105Z,19.86
2019-05-23T19:06:16.495Z,19.75
2019-05-23T19:08:49.901Z,20.02
2019-05-23T19:11:21.973Z,19.83
2019-05-23T19:13:53.404Z,19.68
2019-05-23T19:16:24.635Z,19.60
2019-05-23T19:18:56.583Z,19.48
2019-05-23T19:21:29.449Z,19.34
2019-05-23T19:24:01.210Z,19.37
2019-05-23T19:26:33.491Z,19.45
2019-05-23T19:29:04.958Z,19.12
2019-05-23T19:31:36.378Z,19.09
2019-05-23T19:34:07.850Z,18.98
2019-05-23T19:36:39.396Z,19.19
2019-05-23T19:39:11.611Z,19.22
2019-05-23T19:41:43.321Z,19.08
2019-05-23T19:44:14.692Z,19.08
2019-05-23T19:46:45.690Z,19.17
2019-05-23T19:49:16.807Z,19.06
2019-05-23T19:51:47.923Z,18.85
2019-05-23T19:54:19.660Z,18.68
2019-05-23T19:56:50.741Z,18.63
2019-05-23T19:59:22.186Z,18.28
2019-05-23T20:02:15.415Z,18.50
2019-05-23T20:04:53.260Z,18.49
2019-05-23T20:07:24.436Z,18.52
2019-05-23T20:09:57.487Z,18.56
2019-05-23T20:12:28.830Z,18.25
2019-05-23T20:15:00.953Z,18.11
2019-05-23T20:17:33.243Z,18.17
2019-05-23T20:20:05.067Z,18.05
2019-05-23T20:22:36.066Z,18.51
2019-05-23T20:25:07.688Z,18.23
2019-05-23T20:27:38.679Z,17.88
2019-05-23T20:30:13.177Z,17.61
2019-05-23T20:32:44.312Z,17.77
2019-05-23T20:35:15.551Z,17.80
2019-05-23T20:37:46.690Z,17.67
2019-05-23T20:40:17.753Z,17.72
2019-05-23T20:42:48.772Z,17.68
2019-05-23T20:45:19.879Z,17.54
2019-05-23T20:47:51.108Z,17.36
2019-05-23T20:50:22.179Z,17.49
2019-05-23T20:52:54.025Z,17.40
2019-05-23T20:55:25.112Z,17.26
2019-05-23T20:57:56.448Z,17.14
2019-05-23T21:00:45.347Z,17.27
2019-05-23T21:03:16.990Z,17.30
2019-05-23T21:05:48.380Z,16.96
2019-05-23T21:08:20.878Z,16.99
2019-05-23T21:10:52.255Z,17.00
2019-05-23T21:13:23.354Z,17.01
2019-05-23T21:15:54.959Z,16.94
2019-05-23T21:18:35.182Z,16.81
2019-05-23T21:21:07.432Z,16.87
2019-05-23T21:23:38.921Z,16.88
2019-05-23T21:26:10.003Z,16.99
2019-05-23T21:28:41.038Z,16.92
2019-05-23T21:31:17.047Z,16.79
2019-05-23T21:33:48.316Z,16.82
2019-05-23T21:36:19.656Z,16.56
2019-05-23T21:38:50.955Z,16.32
2019-05-23T21:41:22.008Z,16.53
2019-05-23T21:43:54.798Z,16.60
2019-05-23T21:46:26.144Z,16.66
2019-05-23T21:48:57.457Z,16.27
2019-05-23T21:51:28.518Z,16.33
2019-05-23T21:53:59.821Z,16.11
2019-05-23T21:56:31.058Z,16.01
2019-05-23T21:59:02.365Z,16.06
2019-05-23T22:01:38.651Z,15.96
2019-05-23T22:04:30.415Z,16.08
2019-05-23T22:07:02.788Z,16.11
2019-05-23T22:09:34.532Z,16.14
2019-05-23T22:12:06.633Z,16.10
2019-05-23T22:14:37.715Z,15.94
2019-05-23T22:17:08.685Z,16.12
2019-05-23T22:19:39.910Z,16.09
2019-05-23T22:22:11.171Z,15.89
2019-05-23T22:24:42.552Z,15.86
2019-05-23T22:27:13.627Z,15.68
2019-05-23T22:29:44.733Z,15.63
2019-05-23T22:32:17.464Z,15.79
2019-05-23T22:34:56.723Z,15.71
2019-05-23T22:37:29.694Z,15.59
2019-05-23T22:40:00.750Z,15.37
2019-05-23T22:42:32.038Z,15.40
2019-05-23T22:45:04.713Z,15.48
2019-05-23T22:47:35.923Z,15.32
2019-05-23T22:50:07.801Z,15.29
2019-05-23T22:52:38.812Z,15.41
2019-05-23T22:55:09.886Z,15.28
2019-05-23T22:57:40.850Z,15.25
2019-05-23T23:00:14.039Z,15.06
2019-05-23T23:02:46.060Z,15.05
2019-05-23T23:05:17.354Z,15.06
2019-05-23T23:07:48.788Z,15.05
2019-05-23T23:10:19.789Z,15.04
2019-05-23T23:12:50.817Z,14.87
2019-05-23T23:15:22.055Z,14.85
2019-05-23T23:17:53.139Z,14.85
2019-05-23T23:20:24.354Z,14.77
2019-05-23T23:22:55.343Z,14.77
2019-05-23T23:25:26.312Z,14.90
2019-05-23T23:27:57.782Z,14.93
2019-05-23T23:30:31.761Z,14.77
2019-05-23T23:33:03.014Z,14.86
2019-05-23T23:35:34.186Z,14.64
2019-05-23T23:38:05.515Z,14.82
2019-05-23T23:40:36.602Z,14.93
2019-05-23T23:43:07.608Z,14.93
2019-05-23T23:45:56.520Z,14.92
2019-05-23T23:48:45.312Z,14.99
2019-05-23T23:51:34.010Z,14.67
2019-05-23T23:54:22.447Z,14.59
2019-05-23T23:57:11.011Z,14.45
2019-05-23T23:59:42.679Z,14.39
